createdAt,value
2018-01-27T09:32:09.066Z,30.57
2018-01-27T09:34:36.560Z,28.13
2018-01-27T09:37:04.065Z,27.70
2018-01-27T09:39:31.566Z,26.83
2018-01-27T09:41:59.078Z,26.70
2018-01-27T09:44:26.595Z,27.53
2018-01-27T09:46:54.093Z,28.07
2018-01-27T09:49:21.581Z,29.40
2018-01-27T09:51:49.861Z,26.80
2018-01-27T09:54:19.038Z,32.97
2018-01-27T09:56:46.542Z,27.53
2018-01-27T09:59:14.049Z,29.50
2018-01-27T10:01:41.553Z,29.23
2018-01-27T10:04:09.069Z,29.40
2018-01-27T10:06:36.569Z,29.77
2018-01-27T10:09:04.831Z,30.13
2018-01-27T10:11:33.089Z,32.60
2018-01-27T10:14:00.642Z,31.00
2018-01-27T10:16:28.121Z,30.43
2018-01-27T10:18:56.382Z,28.27
2018-01-27T10:21:23.887Z,29.13
2018-01-27T10:23:51.397Z,28.47
2018-01-27T10:26:18.928Z,29.70
2018-01-27T10:28:46.413Z,31.50
2018-01-27T10:31:13.902Z,32.30
2018-01-27T10:33:42.187Z,28.67
2018-01-27T10:36:09.697Z,28.97
2018-01-27T10:38:37.209Z,28.30
2018-01-27T10:41:04.721Z,29.03
2018-01-27T10:43:32.226Z,28.97
2018-01-27T10:45:59.737Z,29.17
2018-01-27T10:48:27.226Z,28.03
2018-01-27T10:50:55.532Z,28.40
2018-01-27T10:53:23.030Z,28.80
2018-01-27T10:55:50.530Z,28.60
2018-01-27T10:58:18.053Z,27.37
2018-01-27T11:00:48.404Z,27.67
2018-01-27T11:03:16.676Z,28.10
2018-01-27T11:05:44.954Z,29.67
2018-01-27T11:08:13.251Z,30.30
2018-01-27T11:10:40.769Z,28.70
2018-01-27T11:13:08.253Z,28.60
2018-01-27T11:15:36.525Z,28.83
2018-01-27T11:18:04.778Z,28.63
2018-01-27T11:20:32.265Z,29.20
2018-01-27T11:23:00.621Z,29.80
2018-01-27T11:25:28.140Z,28.87
2018-01-27T11:27:55.681Z,29.20
2018-01-27T11:30:23.202Z,29.10
2018-01-27T11:32:50.695Z,28.30
2018-01-27T11:35:18.214Z,27.50
2018-01-27T11:37:45.846Z,28.90
2018-01-27T11:40:13.358Z,28.10
2018-01-27T11:42:41.618Z,27.70
2018-01-27T11:45:09.123Z,28.10
2018-01-27T11:47:36.689Z,28.50
2018-01-27T11:50:04.178Z,26.20
2018-01-27T11:52:31.687Z,26.20
2018-01-27T11:54:59.217Z,27.77
2018-01-27T11:57:26.712Z,24.93
2018-01-27T11:59:54.235Z,28.00
2018-01-27T12:02:21.732Z,26.50
2018-01-27T12:04:49.368Z,26.27
2018-01-27T12:07:17.633Z,23.10
2018-01-27T12:09:45.129Z,22.23
2018-01-27T12:12:12.640Z,22.50
2018-01-27T12:14:40.129Z,21.87
2018-01-27T12:17:08.406Z,20.30
2018-01-27T12:19:36.677Z,22.43
2018-01-27T12:22:04.966Z,19.93
2018-01-27T12:24:32.585Z,21.30
2018-01-27T12:27:00.086Z,21.43
2018-01-27T12:29:27.616Z,19.37
2018-01-27T12:31:55.110Z,18.23
2018-01-27T12:34:22.633Z,19.27
2018-01-27T12:36:50.133Z,17.30
2018-01-27T12:39:17.654Z,16.03
2018-01-27T12:41:45.944Z,17.40
2018-01-27T12:44:14.213Z,15.53
2018-01-27T12:46:42.489Z,17.80
2018-01-27T12:49:10.751Z,18.20
2018-01-27T12:51:38.261Z,16.40
2018-01-27T12:54:05.801Z,16.47
2018-01-27T12:56:34.764Z,15.50
2018-01-27T12:59:03.779Z,15.40
2018-01-27T13:01:32.081Z,13.77
2018-01-27T13:03:59.597Z,14.43
2018-01-27T13:06:27.085Z,14.50
2018-01-27T13:08:54.637Z,13.50
2018-01-27T13:11:22.157Z,14.37
2018-01-27T13:13:49.669Z,13.30
2018-01-27T13:16:17.205Z,12.87
2018-01-27T13:18:45.504Z,14.13
2018-01-27T13:21:13.782Z,12.30
2018-01-27T13:23:41.300Z,14.60
2018-01-27T13:26:08.833Z,13.63
2018-01-27T13:28:36.355Z,12.40
2018-01-27T13:31:04.633Z,11.83
2018-01-27T13:33:32.151Z,16.00
2018-01-27T13:35:59.672Z,21.00
